Time;durP1;ratioP1;P1;durP2;ratioP2;P2;SDS_P1;SDS_P2;PMS_P1;PMS_P2;Temp;Humidity;BMP_temperature;BMP_pressure;BME280_temperature;BME280_humidity;BME280_pressure;Samples;Min_cycle;Max_cycle;Signal;HPM_P1;HPM_P2
2023/12/29 00:00:14;;;;;;;11.15;7.68;;;15.20;99.90;;;;;;4591569;19;20007;-74
2023/12/29 00:02:09;;;;;;;10.75;7.55;;;15.10;99.90;;;;;;4592592;19;20014;-74
2023/12/29 00:03:43;;;;;;;10.38;7.25;;;15.20;99.90;;;;;;4591473;19;20002;-74
2023/12/29 00:05:18;;;;;;;10.73;6.88;;;15.20;99.90;;;;;;4591080;19;20318;-74
2023/12/29 00:06:54;;;;;;;9.05;7.00;;;15.20;99.90;;;;;;4592458;19;20088;-74
2023/12/29 00:08:29;;;;;;;12.00;6.72;;;15.10;99.90;;;;;;4592717;19;20003;-74
2023/12/29 00:10:03;;;;;;;11.05;7.22;;;15.20;99.90;;;;;;4592939;19;20002;-74
2023/12/29 00:11:38;;;;;;;9.80;6.93;;;15.10;99.90;;;;;;4592749;19;20007;-74
2023/12/29 00:13:13;;;;;;;10.32;6.80;;;15.20;99.90;;;;;;4592212;19;20432;-74
2023/12/29 00:14:47;;;;;;;9.75;7.32;;;15.10;99.90;;;;;;4592830;19;20429;-74
2023/12/29 00:16:22;;;;;;;12.65;8.27;;;15.10;99.90;;;;;;4592008;19;20011;-74
2023/12/29 00:17:56;;;;;;;10.18;6.95;;;15.10;99.90;;;;;;4592479;19;20003;-74
2023/12/29 00:19:30;;;;;;;10.85;7.45;;;15.10;99.90;;;;;;4592501;19;20028;-74
2023/12/29 00:21:06;;;;;;;11.18;7.20;;;15.10;99.90;;;;;;4592536;19;20457;-74
2023/12/29 00:22:41;;;;;;;11.27;7.63;;;15.10;99.90;;;;;;4591362;19;20009;-74
2023/12/29 00:24:16;;;;;;;11.65;7.45;;;15.00;99.90;;;;;;4592295;19;20322;-74
2023/12/29 00:25:52;;;;;;;12.07;7.13;;;15.10;99.90;;;;;;4591805;19;20010;-74
2023/12/29 00:27:27;;;;;;;10.48;7.25;;;15.10;99.90;;;;;;4592361;19;20005;-74
2023/12/29 00:29:00;;;;;;;12.02;7.10;;;15.10;99.90;;;;;;4592617;19;19999;-74
2023/12/29 00:30:40;;;;;;;9.63;7.20;;;15.00;99.90;;;;;;4592623;19;20313;-74
2023/12/29 00:32:15;;;;;;;15.52;10.02;;;15.00;99.90;;;;;;4592395;19;20097;-74
2023/12/29 00:33:52;;;;;;;12.38;8.50;;;15.00;99.90;;;;;;4591445;19;20006;-74
2023/12/29 00:35:28;;;;;;;13.82;9.48;;;15.00;99.90;;;;;;4590568;19;20010;-74
2023/12/29 00:37:02;;;;;;;15.57;10.77;;;15.00;99.90;;;;;;4591837;19;20488;-74
2023/12/29 00:38:35;;;;;;;12.30;8.73;;;15.00;99.90;;;;;;4592153;19;20003;-74
2023/12/29 00:40:12;;;;;;;17.40;11.40;;;15.00;99.90;;;;;;4592168;19;20007;-74
2023/12/29 00:41:46;;;;;;;13.63;9.73;;;15.00;99.90;;;;;;4592023;19;20010;-74
2023/12/29 00:43:22;;;;;;;13.35;8.20;;;15.00;99.90;;;;;;4592075;19;20025;-74
2023/12/29 00:44:58;;;;;;;10.38;7.78;;;15.00;99.90;;;;;;4592394;19;20028;-74
2023/12/29 00:46:32;;;;;;;13.27;8.30;;;15.00;99.90;;;;;;4590795;19;20007;-74
2023/12/29 00:48:07;;;;;;;12.68;7.75;;;15.00;99.90;;;;;;4592073;19;20010;-74
2023/12/29 00:49:42;;;;;;;13.60;8.43;;;15.00;99.90;;;;;;4595307;19;20017;-74
2023/12/29 00:51:17;;;;;;;12.02;8.57;;;15.00;99.90;;;;;;4596650;19;20087;-74
2023/12/29 00:52:51;;;;;;;12.45;7.80;;;15.00;99.90;;;;;;4596617;19;20015;-74
2023/12/29 00:54:26;;;;;;;12.70;7.63;;;15.00;99.90;;;;;;4596798;19;20074;-74
2023/12/29 00:56:01;;;;;;;13.32;8.75;;;15.00;99.90;;;;;;4595330;19;20038;-74
2023/12/29 00:57:36;;;;;;;11.93;8.15;;;14.90;99.90;;;;;;4595528;19;20033;-74
2023/12/29 00:59:11;;;;;;;13.05;7.85;;;15.00;99.90;;;;;;4595311;19;20045;-74
2023/12/29 01:10:15;;;;;;;11.80;7.55;;;14.90;99.90;;;;;;4549434;19;20055;31
2023/12/29 01:11:51;;;;;;;11.85;8.05;;;14.90;99.90;;;;;;4596358;19;20014;-73
2023/12/29 01:13:25;;;;;;;15.00;8.65;;;14.90;99.90;;;;;;4595299;19;20005;-73
2023/12/29 01:14:59;;;;;;;12.73;7.75;;;14.90;99.90;;;;;;4596229;19;20334;-73
2023/12/29 01:16:34;;;;;;;10.68;8.10;;;14.90;99.90;;;;;;4596196;19;19998;-73
2023/12/29 01:18:09;;;;;;;14.10;8.68;;;14.90;99.90;;;;;;4596147;19;20302;-73
2023/12/29 01:19:43;;;;;;;12.13;8.43;;;14.90;99.90;;;;;;4596131;19;19998;-73
2023/12/29 01:21:18;;;;;;;12.13;8.32;;;14.90;99.90;;;;;;4594741;19;20010;-73
2023/12/29 01:22:52;;;;;;;12.23;8.85;;;14.90;99.90;;;;;;4596041;19;20011;-73
2023/12/29 01:24:27;;;;;;;11.80;8.18;;;14.90;99.90;;;;;;4596292;19;20003;-73
2023/12/29 01:26:02;;;;;;;12.27;8.13;;;14.90;99.90;;;;;;4596358;19;20010;-73
2023/12/29 01:27:36;;;;;;;12.02;8.27;;;14.90;99.90;;;;;;4595976;19;19998;-73
2023/12/29 01:29:10;;;;;;;13.02;7.68;;;14.90;99.90;;;;;;4595905;19;20017;-73
2023/12/29 01:30:46;;;;;;;13.25;9.20;;;14.90;99.90;;;;;;4595203;19;20021;-73
2023/12/29 01:32:23;;;;;;;12.45;8.32;;;14.90;99.90;;;;;;4596089;19;20481;-73
2023/12/29 01:33:56;;;;;;;14.77;8.88;;;14.90;99.90;;;;;;4594442;19;20011;-73
2023/12/29 01:35:32;;;;;;;13.18;9.13;;;14.90;99.90;;;;;;4595784;19;20019;-73
2023/12/29 01:37:06;;;;;;;12.05;8.63;;;14.90;99.90;;;;;;4594464;19;20048;-73
2023/12/29 01:38:40;;;;;;;14.23;8.45;;;14.90;99.90;;;;;;4594377;19;19999;-73
2023/12/29 01:40:16;;;;;;;14.00;8.73;;;14.90;99.90;;;;;;4594158;19;20007;-73
2023/12/29 01:41:55;;;;;;;11.30;8.80;;;14.90;99.90;;;;;;4594328;19;20003;-73
2023/12/29 01:43:29;;;;;;;12.15;8.10;;;14.90;99.90;;;;;;4594646;19;20002;-73
2023/12/29 01:45:05;;;;;;;13.48;9.35;;;14.90;99.90;;;;;;4595517;19;19998;-73
2023/12/29 01:46:38;;;;;;;13.20;9.32;;;14.90;99.90;;;;;;4594268;19;19998;-73
2023/12/29 01:48:12;;;;;;;14.13;9.23;;;14.90;99.90;;;;;;4595114;19;20006;-73
2023/12/29 01:49:48;;;;;;;15.27;10.50;;;14.90;99.90;;;;;;4595847;19;20437;-73
2023/12/29 01:51:24;;;;;;;13.52;8.90;;;14.90;99.90;;;;;;4592740;19;20022;-73
2023/12/29 01:52:58;;;;;;;14.45;10.23;;;14.90;99.90;;;;;;4593983;19;20039;-73
2023/12/29 01:54:35;;;;;;;15.75;10.80;;;14.90;99.90;;;;;;4594078;19;20030;-73
2023/12/29 01:56:09;;;;;;;15.30;11.55;;;14.90;99.90;;;;;;4594082;19;20006;-73
2023/12/29 01:57:43;;;;;;;14.02;9.18;;;14.90;99.90;;;;;;4595040;19;19999;-73
2023/12/29 01:59:18;;;;;;;14.45;10.20;;;14.90;99.90;;;;;;4595320;19;20086;-73
2023/12/29 02:00:52;;;;;;;13.70;9.63;;;14.90;99.90;;;;;;4593222;19;20406;-73
2023/12/29 02:02:27;;;;;;;11.90;8.75;;;14.90;99.90;;;;;;4593890;19;19999;-73
2023/12/29 02:04:04;;;;;;;13.82;8.25;;;14.90;99.90;;;;;;4594961;19;20013;-73
2023/12/29 02:05:38;;;;;;;14.05;9.32;;;14.90;99.90;;;;;;4593852;19;20066;-73
2023/12/29 02:07:12;;;;;;;13.80;8.98;;;14.90;99.90;;;;;;4593776;19;20018;-73
2023/12/29 02:08:47;;;;;;;13.60;9.25;;;14.90;99.90;;;;;;4594819;19;20010;-73
2023/12/29 02:10:21;;;;;;;13.55;9.15;;;14.90;99.90;;;;;;4594522;19;20005;-73
2023/12/29 02:11:55;;;;;;;13.73;9.50;;;14.90;99.90;;;;;;4595369;19;20002;-73
2023/12/29 02:13:30;;;;;;;14.30;10.15;;;14.90;99.90;;;;;;4593020;19;20006;-73
2023/12/29 02:15:07;;;;;;;17.02;9.77;;;14.90;99.90;;;;;;4594876;19;20002;-73
2023/12/29 02:16:59;;;;;;;14.00;9.88;;;14.90;99.90;;;;;;4593554;19;20019;-73
2023/12/29 02:18:35;;;;;;;13.13;8.88;;;14.90;99.90;;;;;;4594808;19;20438;-73
2023/12/29 02:20:09;;;;;;;12.55;8.43;;;14.90;99.90;;;;;;4593787;19;20003;-73
2023/12/29 02:21:43;;;;;;;13.20;9.52;;;14.90;99.90;;;;;;4593495;19;20007;-73
2023/12/29 02:23:18;;;;;;;12.02;8.38;;;14.80;99.90;;;;;;4594468;19;20021;-73
2023/12/29 02:24:52;;;;;;;13.93;10.00;;;14.90;99.90;;;;;;4594807;19;20002;-73
2023/12/29 02:26:26;;;;;;;15.65;9.98;;;14.90;99.90;;;;;;4595000;19;20016;-73
2023/12/29 02:28:16;;;;;;;16.33;11.95;;;14.90;99.90;;;;;;4593724;19;20011;-73
2023/12/29 02:30:11;;;;;;;14.20;11.07;;;14.90;99.90;;;;;;4593363;19;20299;-73
2023/12/29 02:31:45;;;;;;;16.35;10.55;;;14.90;99.90;;;;;;4594890;19;20017;-73
2023/12/29 02:33:23;;;;;;;14.98;9.70;;;14.90;99.90;;;;;;4592889;19;20058;-73
2023/12/29 02:34:56;;;;;;;13.38;9.60;;;14.90;99.90;;;;;;4593265;19;20002;-73
2023/12/29 02:36:30;;;;;;;14.57;9.18;;;14.90;99.90;;;;;;4594114;19;20003;-73
2023/12/29 02:38:07;;;;;;;13.88;9.18;;;14.90;99.90;;;;;;4593418;19;20002;-73
2023/12/29 02:39:40;;;;;;;13.05;8.70;;;14.90;99.90;;;;;;4594297;19;20062;-73
2023/12/29 02:41:14;;;;;;;12.27;8.73;;;14.90;99.90;;;;;;4593343;19;20335;-73
2023/12/29 02:42:50;;;;;;;15.30;9.50;;;14.90;99.90;;;;;;4594506;19;20010;-73
2023/12/29 02:44:24;;;;;;;12.07;8.98;;;14.90;99.90;;;;;;4594653;19;20528;-73
2023/12/29 02:45:58;;;;;;;12.52;8.32;;;14.90;99.90;;;;;;4594604;19;20005;-73
2023/12/29 02:47:33;;;;;;;11.55;8.20;;;14.90;99.90;;;;;;4594622;19;19999;-73
2023/12/29 02:49:11;;;;;;;10.93;8.15;;;14.90;99.90;;;;;;4594471;19;20007;-73
2023/12/29 02:50:45;;;;;;;11.00;8.07;;;14.80;99.90;;;;;;4593694;19;20305;-73
2023/12/29 02:52:20;;;;;;;11.23;8.30;;;14.90;99.90;;;;;;4594472;19;20006;-73
2023/12/29 02:53:53;;;;;;;11.82;7.75;;;14.90;99.90;;;;;;4593296;19;20013;-73
2023/12/29 02:55:28;;;;;;;12.35;8.45;;;14.90;99.90;;;;;;4594169;19;19999;-73
2023/12/29 02:57:03;;;;;;;14.73;8.35;;;14.90;99.90;;;;;;4594212;19;20007;-73
2023/12/29 02:58:37;;;;;;;14.88;9.70;;;14.90;99.90;;;;;;4594086;19;20354;-73
2023/12/29 03:00:12;;;;;;;12.77;9.07;;;14.90;99.90;;;;;;4594155;19;19998;-73
2023/12/29 03:01:47;;;;;;;13.27;8.25;;;14.90;99.90;;;;;;4594332;19;20297;-73
2023/12/29 03:03:21;;;;;;;13.25;8.70;;;14.90;99.90;;;;;;4594337;19;20002;-73
2023/12/29 03:04:55;;;;;;;13.77;9.05;;;14.90;99.90;;;;;;4593955;19;20353;-73
2023/12/29 03:06:31;;;;;;;13.60;9.00;;;14.90;99.90;;;;;;4592837;19;20332;-73
2023/12/29 03:08:05;;;;;;;10.57;7.70;;;14.90;99.90;;;;;;4593565;19;20006;-73
2023/12/29 03:09:39;;;;;;;12.60;7.50;;;14.90;99.90;;;;;;4592535;19;20003;-73
2023/12/29 03:11:15;;;;;;;12.73;7.97;;;14.90;99.90;;;;;;4592612;19;20010;-73
2023/12/29 03:12:49;;;;;;;11.70;7.93;;;14.90;99.90;;;;;;4591465;19;19999;-73
2023/12/29 03:14:23;;;;;;;10.77;7.18;;;14.90;99.90;;;;;;4592768;19;20073;-73
2023/12/29 03:15:58;;;;;;;11.30;8.10;;;14.90;99.90;;;;;;4593729;19;20080;-73
2023/12/29 03:17:33;;;;;;;10.95;7.47;;;14.90;99.90;;;;;;4593950;19;20432;-73
2023/12/29 03:19:06;;;;;;;14.63;9.15;;;14.90;99.90;;;;;;4593924;19;19998;-73
2023/12/29 03:20:44;;;;;;;13.52;8.10;;;14.90;99.90;;;;;;4593213;19;20020;-73
2023/12/29 03:22:18;;;;;;;10.38;7.38;;;14.90;99.90;;;;;;4593929;19;20006;-73
2023/12/29 03:23:53;;;;;;;10.25;8.20;;;14.90;99.90;;;;;;4593709;19;20002;-73
2023/12/29 03:25:28;;;;;;;12.48;7.82;;;14.90;99.90;;;;;;4593626;19;20429;-73
2023/12/29 03:27:03;;;;;;;15.32;8.43;;;14.90;99.90;;;;;;4593773;19;19999;-73
2023/12/29 03:28:36;;;;;;;9.88;7.05;;;14.90;99.90;;;;;;4593729;19;20020;-73
2023/12/29 03:30:12;;;;;;;10.93;7.80;;;14.90;99.90;;;;;;4592190;19;19998;-73
2023/12/29 03:31:46;;;;;;;12.65;7.63;;;14.90;99.90;;;;;;4592334;19;20006;-73
2023/12/29 03:33:21;;;;;;;10.73;7.30;;;14.90;99.90;;;;;;4592917;19;20002;-73
2023/12/29 03:34:56;;;;;;;9.80;7.43;;;14.90;99.90;;;;;;4592029;19;20012;-73
2023/12/29 03:36:32;;;;;;;12.05;7.38;;;14.90;99.90;;;;;;4593244;19;20061;-73
2023/12/29 03:38:06;;;;;;;12.60;7.65;;;14.90;99.90;;;;;;4593535;19;20021;-73
2023/12/29 03:39:41;;;;;;;10.70;7.28;;;14.90;99.90;;;;;;4593313;19;20007;-73
2023/12/29 03:41:15;;;;;;;9.23;7.00;;;14.90;99.90;;;;;;4592552;19;20006;-73
2023/12/29 03:42:49;;;;;;;10.73;7.47;;;14.90;99.90;;;;;;4593295;19;20040;-73
2023/12/29 03:44:24;;;;;;;9.95;6.95;;;14.90;99.90;;;;;;4593149;19;19999;-73
2023/12/29 03:45:59;;;;;;;13.02;7.70;;;14.90;99.90;;;;;;4593358;19;20062;-73
2023/12/29 03:47:35;;;;;;;11.02;7.30;;;14.90;99.90;;;;;;4593398;19;20291;-73
2023/12/29 03:49:10;;;;;;;11.70;7.97;;;14.90;99.90;;;;;;4593149;19;20066;-73
2023/12/29 03:50:44;;;;;;;9.80;7.60;;;14.90;99.90;;;;;;4592526;19;20006;-74
2023/12/29 03:52:18;;;;;;;11.73;7.30;;;14.90;99.90;;;;;;4591891;19;20426;-73
2023/12/29 03:53:53;;;;;;;13.57;7.78;;;14.90;99.90;;;;;;4591897;19;20312;-73
2023/12/29 03:55:27;;;;;;;10.50;7.28;;;14.90;99.90;;;;;;4592886;19;20003;-73
2023/12/29 03:57:02;;;;;;;10.68;7.25;;;14.90;99.90;;;;;;4592862;19;20037;-73
2023/12/29 03:58:37;;;;;;;11.52;7.85;;;14.90;99.90;;;;;;4592936;19;20019;-73
2023/12/29 04:00:14;;;;;;;11.57;7.22;;;14.90;99.90;;;;;;4593007;19;20069;-74
2023/12/29 04:01:49;;;;;;;11.45;7.03;;;14.90;99.90;;;;;;4592855;19;20007;-73
2023/12/29 04:03:24;;;;;;;8.80;6.10;;;14.90;99.90;;;;;;4592850;19;20074;-74
2023/12/29 04:05:01;;;;;;;12.13;7.93;;;14.90;99.90;;;;;;4592730;19;20036;-74
2023/12/29 04:06:35;;;;;;;10.65;6.97;;;14.90;99.90;;;;;;4591495;19;20015;-74
2023/12/29 04:08:10;;;;;;;9.40;7.22;;;14.90;99.90;;;;;;4592719;19;20002;-74
2023/12/29 04:09:44;;;;;;;10.35;6.82;;;14.90;99.90;;;;;;4590663;19;20074;-74
2023/12/29 04:11:18;;;;;;;10.32;6.72;;;14.90;99.90;;;;;;4590915;19;20019;-74
2023/12/29 04:12:53;;;;;;;9.57;6.90;;;14.90;99.90;;;;;;4592699;19;20298;-74
2023/12/29 04:14:27;;;;;;;11.27;6.97;;;14.90;99.90;;;;;;4591306;19;19999;-74
2023/12/29 04:16:02;;;;;;;9.38;6.55;;;14.90;99.90;;;;;;4592412;19;20081;-74
2023/12/29 04:17:37;;;;;;;11.40;6.43;;;14.90;99.90;;;;;;4591013;19;20057;-74
2023/12/29 04:19:11;;;;;;;8.88;6.05;;;14.90;99.90;;;;;;4591947;19;20006;-74
2023/12/29 04:20:45;;;;;;;9.32;6.32;;;14.80;99.90;;;;;;4591786;19;20092;-74
2023/12/29 04:22:20;;;;;;;8.55;6.47;;;14.80;99.90;;;;;;4592210;19;20017;-74
2023/12/29 04:23:53;;;;;;;10.13;6.82;;;14.80;99.90;;;;;;4591531;19;20002;-74
2023/12/29 04:25:28;;;;;;;8.32;6.05;;;14.80;99.90;;;;;;4592145;19;20002;-74
2023/12/29 04:27:03;;;;;;;7.55;5.90;;;14.80;99.90;;;;;;4592481;19;20006;-74
2023/12/29 04:28:53;;;;;;;8.32;6.28;;;14.80;99.90;;;;;;4590665;19;20032;-73
2023/12/29 04:30:28;;;;;;;8.57;6.03;;;14.80;99.90;;;;;;4589123;19;20414;-74
2023/12/29 04:32:03;;;;;;;7.85;5.68;;;14.80;99.90;;;;;;4590842;19;20027;-77
2023/12/29 04:33:41;;;;;;;8.52;5.75;;;14.80;99.90;;;;;;4589464;19;20019;-77
2023/12/29 04:35:15;;;;;;;7.97;5.75;;;14.80;99.90;;;;;;4590712;19;20010;-77
2023/12/29 04:36:50;;;;;;;8.70;5.88;;;14.80;99.90;;;;;;4590683;19;20009;-78
2023/12/29 04:38:24;;;;;;;8.73;6.45;;;14.80;99.90;;;;;;4589492;19;20110;-77
2023/12/29 04:39:58;;;;;;;9.75;6.32;;;14.80;99.90;;;;;;4589569;19;20413;-79
2023/12/29 04:41:33;;;;;;;12.63;6.85;;;14.90;99.90;;;;;;4589247;19;20299;-79
2023/12/29 04:43:07;;;;;;;8.50;6.13;;;14.90;99.90;;;;;;4590840;19;20435;-79
2023/12/29 04:44:41;;;;;;;9.45;6.15;;;15.10;99.90;;;;;;4591088;19;20651;-78
2023/12/29 04:46:16;;;;;;;8.93;6.57;;;15.20;99.90;;;;;;4590683;19;20028;-78
2023/12/29 04:47:51;;;;;;;8.25;6.00;;;15.30;99.90;;;;;;4591599;19;20007;-79
2023/12/29 04:49:24;;;;;;;8.05;6.10;;;15.40;99.90;;;;;;4590567;19;20003;-78
2023/12/29 04:51:00;;;;;;;7.95;6.22;;;15.40;99.90;;;;;;4591615;19;20014;-78
2023/12/29 04:52:34;;;;;;;10.15;6.32;;;14.90;99.90;;;;;;4592184;19;20006;-77
2023/12/29 04:54:08;;;;;;;8.18;5.93;;;14.40;99.90;;;;;;4589939;19;19999;-77
2023/12/29 04:55:44;;;;;;;8.37;6.27;;;14.00;99.90;;;;;;4590620;19;20030;-77
2023/12/29 04:57:17;;;;;;;9.43;6.77;;;13.60;99.90;;;;;;4591718;19;20006;-77
2023/12/29 04:58:52;;;;;;;9.17;6.57;;;13.40;99.90;;;;;;4592041;19;20013;-77
2023/12/29 05:00:29;;;;;;;8.43;6.23;;;13.20;99.90;;;;;;4591477;19;20010;-78
2023/12/29 05:02:03;;;;;;;8.83;6.43;;;13.00;99.90;;;;;;4590457;19;20021;-78
2023/12/29 05:03:37;;;;;;;7.47;5.53;;;12.90;99.90;;;;;;4591351;19;20016;-78
2023/12/29 05:05:12;;;;;;;7.57;6.17;;;12.70;99.90;;;;;;4592070;19;20074;-78
2023/12/29 05:06:48;;;;;;;8.63;6.10;;;12.60;99.90;;;;;;4591692;19;19999;-78
2023/12/29 05:08:22;;;;;;;10.90;6.93;;;12.50;99.90;;;;;;4590301;19;20006;-79
2023/12/29 05:09:57;;;;;;;9.93;7.30;;;12.40;99.90;;;;;;4591635;19;20021;-78
2023/12/29 05:11:32;;;;;;;8.30;6.20;;;12.30;99.90;;;;;;4589949;19;20052;-76
2023/12/29 05:13:06;;;;;;;9.03;6.80;;;12.30;99.90;;;;;;4590254;19;20014;-74
2023/12/29 05:14:41;;;;;;;7.90;6.07;;;12.20;99.90;;;;;;4591320;19;20011;-76
2023/12/29 05:16:16;;;;;;;7.90;6.00;;;12.10;99.90;;;;;;4591521;19;20002;-76
2023/12/29 05:17:50;;;;;;;9.47;6.60;;;12.10;99.90;;;;;;4590051;19;20461;-76
2023/12/29 05:19:25;;;;;;;8.70;6.53;;;12.10;99.90;;;;;;4590385;19;20013;-76
2023/12/29 05:20:59;;;;;;;11.20;7.00;;;12.00;99.90;;;;;;4590523;19;20413;-77
2023/12/29 05:22:33;;;;;;;9.40;6.80;;;12.00;99.90;;;;;;4591399;19;20423;-76
2023/12/29 05:24:09;;;;;;;9.77;6.90;;;12.00;99.90;;;;;;4592060;19;20451;-76
2023/12/29 05:25:43;;;;;;;8.87;6.37;;;11.90;99.90;;;;;;4591279;19;20451;-76
2023/12/29 05:27:17;;;;;;;10.03;6.60;;;11.70;99.90;;;;;;4591285;19;20451;-77
2023/12/29 05:28:52;;;;;;;9.60;6.50;;;11.70;99.90;;;;;;4591458;19;20455;-77
2023/12/29 05:30:27;;;;;;;8.97;6.33;;;11.70;99.90;;;;;;4589711;19;20764;-79
2023/12/29 05:32:02;;;;;;;8.97;6.60;;;11.70;99.90;;;;;;4591249;19;20433;-77
2023/12/29 05:33:37;;;;;;;11.00;6.60;;;11.70;99.90;;;;;;4589306;19;20405;-77
2023/12/29 05:35:11;;;;;;;8.50;5.97;;;11.70;99.90;;;;;;4590822;19;20952;-78
2023/12/29 05:36:46;;;;;;;8.70;6.03;;;11.70;99.90;;;;;;4593131;19;20418;-74
2023/12/29 05:38:21;;;;;;;8.00;6.33;;;11.60;99.90;;;;;;4595359;19;20413;-74
2023/12/29 05:39:55;;;;;;;8.47;6.20;;;11.60;99.90;;;;;;4594490;19;20421;-75
2023/12/29 05:41:30;;;;;;;8.33;6.10;;;11.60;99.90;;;;;;4592730;19;20019;-74
2023/12/29 05:43:05;;;;;;;8.77;5.83;;;11.60;99.90;;;;;;4595530;19;20431;-74
2023/12/29 05:44:39;;;;;;;8.87;6.40;;;11.50;99.90;;;;;;4595814;19;20396;-73
2023/12/29 05:46:13;;;;;;;7.57;5.97;;;11.50;99.90;;;;;;4595822;19;20939;-73
2023/12/29 05:47:49;;;;;;;9.27;6.40;;;11.50;99.90;;;;;;4595459;19;20461;-73
2023/12/29 05:49:26;;;;;;;8.13;6.33;;;11.50;99.90;;;;;;4595463;19;20419;-73
2023/12/29 05:51:09;;;;;;;9.30;6.03;;;11.50;99.90;;;;;;4593164;19;20437;-73
2023/12/29 05:52:44;;;;;;;7.97;6.20;;;11.40;99.90;;;;;;4594139;19;20432;-73
2023/12/29 05:54:20;;;;;;;8.33;6.00;;;11.50;99.90;;;;;;4593783;19;20439;-73
2023/12/29 05:55:53;;;;;;;7.57;5.63;;;11.40;99.90;;;;;;4594029;19;20456;-73
2023/12/29 05:57:29;;;;;;;8.63;6.60;;;11.40;99.90;;;;;;4595703;19;20437;-73
2023/12/29 05:59:04;;;;;;;9.37;6.30;;;11.40;99.90;;;;;;4595259;19;20478;-73
2023/12/29 06:00:39;;;;;;;8.63;6.47;;;11.30;99.90;;;;;;4594593;19;20429;-73
2023/12/29 06:02:14;;;;;;;7.40;5.93;;;11.40;99.90;;;;;;4593971;19;20529;-73
2023/12/29 06:03:49;;;;;;;8.50;6.30;;;11.30;99.90;;;;;;4594888;19;20392;-73
2023/12/29 06:05:24;;;;;;;8.57;6.53;;;11.30;99.90;;;;;;4595147;19;20950;-73
2023/12/29 06:07:00;;;;;;;7.40;5.87;;;11.30;99.90;;;;;;4595364;19;20397;-73
2023/12/29 06:08:34;;;;;;;7.93;6.07;;;11.30;99.90;;;;;;4593598;19;20760;-73
2023/12/29 06:10:09;;;;;;;7.07;5.93;;;11.30;99.90;;;;;;4593686;19;20938;-73
2023/12/29 06:11:44;;;;;;;9.10;6.27;;;11.30;99.90;;;;;;4593273;19;20433;-73
2023/12/29 06:13:18;;;;;;;9.93;6.53;;;11.20;99.90;;;;;;4594665;19;20508;-73
2023/12/29 06:14:52;;;;;;;7.73;5.60;;;11.20;99.90;;;;;;4593524;19;20389;-73
2023/12/29 06:16:27;;;;;;;7.03;4.67;;;11.20;99.90;;;;;;4594594;19;20508;-73
2023/12/29 06:18:00;;;;;;;8.43;5.30;;;11.40;99.90;;;;;;4594699;19;20429;-73
2023/12/29 06:19:34;;;;;;;10.57;5.30;;;11.60;99.90;;;;;;4593783;19;20448;-73
2023/12/29 06:21:11;;;;;;;8.63;5.67;;;11.70;99.90;;;;;;4593344;19;20472;-74
2023/12/29 06:22:45;;;;;;;8.97;6.20;;;11.90;99.90;;;;;;4595069;19;20908;-74
2023/12/29 06:24:21;;;;;;;9.00;6.07;;;12.10;99.90;;;;;;4595041;19;20002;-75
2023/12/29 06:25:56;;;;;;;8.80;5.43;;;12.30;99.90;;;;;;4595053;19;20421;-75
2023/12/29 06:27:32;;;;;;;8.23;6.00;;;12.40;99.90;;;;;;4594939;19;20002;-73
2023/12/29 06:29:05;;;;;;;7.27;5.80;;;12.50;99.90;;;;;;4594743;19;20370;-73
2023/12/29 06:30:41;;;;;;;10.27;5.20;;;12.70;99.90;;;;;;4594783;19;20010;-73
2023/12/29 06:32:14;;;;;;;8.97;5.40;;;12.80;99.90;;;;;;4594639;19;20005;-73
2023/12/29 06:33:48;;;;;;;7.80;5.70;;;12.80;99.90;;;;;;4592614;19;20434;-73
2023/12/29 06:35:24;;;;;;;8.30;5.77;;;12.90;99.90;;;;;;4594234;19;20461;-73
2023/12/29 06:36:58;;;;;;;9.30;6.60;;;13.00;99.90;;;;;;4594527;19;20001;-73
2023/12/29 06:38:33;;;;;;;8.77;5.33;;;13.10;99.90;;;;;;4594775;19;20007;-73
2023/12/29 06:40:09;;;;;;;7.37;4.93;;;13.20;99.90;;;;;;4594793;19;20019;-73
2023/12/29 06:41:43;;;;;;;8.43;5.20;;;13.20;99.90;;;;;;4594399;19;20002;-73
2023/12/29 06:43:16;;;;;;;7.83;5.50;;;13.30;99.90;;;;;;4594405;19;20003;-73
2023/12/29 06:44:52;;;;;;;10.63;5.93;;;13.40;99.90;;;;;;4594655;19;20003;-73
2023/12/29 06:46:25;;;;;;;9.53;6.23;;;13.40;99.90;;;;;;4594387;19;20005;-73
2023/12/29 06:47:59;;;;;;;8.50;5.90;;;13.40;99.90;;;;;;4594100;19;20006;-73
2023/12/29 06:49:37;;;;;;;9.07;4.60;;;13.50;99.90;;;;;;4594571;19;20002;-73
2023/12/29 06:51:17;;;;;;;7.27;5.50;;;13.60;99.90;;;;;;4593370;19;20009;-73
2023/12/29 06:52:51;;;;;;;6.70;4.50;;;13.60;99.90;;;;;;4592948;19;20013;-73
2023/12/29 06:54:26;;;;;;;6.47;4.80;;;13.60;99.90;;;;;;4591678;19;20024;-73
2023/12/29 06:56:00;;;;;;;7.97;5.50;;;13.60;99.90;;;;;;4593772;19;20321;-73
2023/12/29 06:57:34;;;;;;;7.47;5.33;;;13.70;99.90;;;;;;4594144;19;20002;-74
2023/12/29 06:59:10;;;;;;;9.17;6.07;;;13.70;99.90;;;;;;4592721;19;20006;-73
2023/12/29 07:00:44;;;;;;;10.63;8.33;;;13.70;99.90;;;;;;4593406;19;20058;-73
2023/12/29 07:02:19;;;;;;;8.27;5.57;;;13.80;99.90;;;;;;4594007;19;20065;-73
2023/12/29 07:03:54;;;;;;;8.40;5.33;;;13.70;99.90;;;;;;4594060;19;20029;-73
2023/12/29 07:05:29;;;;;;;8.47;5.60;;;13.80;99.90;;;;;;4593983;19;20002;-73
2023/12/29 07:07:03;;;;;;;9.30;6.17;;;13.80;99.90;;;;;;4593892;19;20461;-73
2023/12/29 07:08:38;;;;;;;8.60;5.50;;;13.80;99.90;;;;;;4593899;19;20078;-75
2023/12/29 07:10:15;;;;;;;8.27;5.03;;;13.80;99.90;;;;;;4593724;19;20322;-74
2023/12/29 07:11:49;;;;;;;7.00;4.93;;;13.90;99.90;;;;;;4592751;19;20015;-72
2023/12/29 07:13:26;;;;;;;6.50;4.53;;;13.90;99.90;;;;;;4592170;19;20081;-78
2023/12/29 07:15:01;;;;;;;7.63;5.28;;;13.90;99.90;;;;;;4593729;19;20295;-73
2023/12/29 07:16:35;;;;;;;6.83;4.70;;;13.90;99.90;;;;;;4592391;19;20003;-73
2023/12/29 07:18:11;;;;;;;7.60;4.57;;;14.00;99.90;;;;;;4592669;19;20007;-73
2023/12/29 07:19:45;;;;;;;6.30;4.33;;;14.00;99.90;;;;;;4593645;19;20010;-73
2023/12/29 07:21:18;;;;;;;6.70;5.23;;;14.00;99.90;;;;;;4592764;19;20456;-73
2023/12/29 07:22:54;;;;;;;5.78;4.60;;;14.00;99.90;;;;;;4593970;19;20006;-74
2023/12/29 07:24:28;;;;;;;7.83;5.20;;;14.00;99.90;;;;;;4593802;19;20035;-73
2023/12/29 07:26:02;;;;;;;6.83;4.97;;;14.10;99.90;;;;;;4593812;19;19999;-73
2023/12/29 07:27:37;;;;;;;7.30;4.83;;;14.10;99.90;;;;;;4593753;19;20090;-74
2023/12/29 07:29:10;;;;;;;6.83;5.40;;;14.10;99.90;;;;;;4593557;19;20003;-74
2023/12/29 07:30:45;;;;;;;8.53;5.00;;;14.10;99.90;;;;;;4592956;19;20077;-73
2023/12/29 07:32:20;;;;;;;6.60;4.97;;;14.20;99.90;;;;;;4593260;19;20477;-74
2023/12/29 07:33:55;;;;;;;6.60;5.23;;;14.30;99.90;;;;;;4591362;19;19998;-74
2023/12/29 07:35:29;;;;;;;8.57;5.80;;;14.40;99.90;;;;;;4593027;19;20035;-73
2023/12/29 07:37:05;;;;;;;6.43;4.60;;;14.50;99.90;;;;;;4593196;19;20007;-74
2023/12/29 07:38:39;;;;;;;8.03;5.07;;;14.60;99.90;;;;;;4593366;19;19999;-73
2023/12/29 07:40:13;;;;;;;8.17;4.87;;;14.70;99.90;;;;;;4593137;19;20422;-74
2023/12/29 07:41:50;;;;;;;8.80;5.38;;;14.70;99.90;;;;;;4591737;19;20359;-74
2023/12/29 07:43:24;;;;;;;7.37;5.07;;;14.80;99.90;;;;;;4592726;19;20011;-74
2023/12/29 07:44:58;;;;;;;8.02;5.65;;;14.90;99.90;;;;;;4593244;19;20022;-74
2023/12/29 07:46:33;;;;;;;6.68;4.50;;;15.00;99.90;;;;;;4593196;19;20362;-74
2023/12/29 07:48:07;;;;;;;8.30;6.10;;;15.00;99.90;;;;;;4593141;19;19999;-74
2023/12/29 07:49:43;;;;;;;8.65;5.50;;;15.10;99.90;;;;;;4593122;19;20006;-74
2023/12/29 07:51:19;;;;;;;7.22;5.28;;;15.10;99.90;;;;;;4591966;19;20028;-74
2023/12/29 07:52:53;;;;;;;7.53;5.65;;;15.20;99.90;;;;;;4592778;19;20010;-74
2023/12/29 07:54:27;;;;;;;8.75;5.25;;;15.40;99.90;;;;;;4592117;19;20295;-74
2023/12/29 07:56:02;;;;;;;9.45;5.38;;;15.40;99.90;;;;;;4592716;19;19999;-74
2023/12/29 07:57:36;;;;;;;8.57;5.50;;;15.50;99.90;;;;;;4592924;19;20066;-74
2023/12/29 07:59:10;;;;;;;6.95;5.25;;;15.50;99.90;;;;;;4591054;19;19994;-74
2023/12/29 08:00:46;;;;;;;7.25;4.45;;;15.50;99.90;;;;;;4592130;19;20034;-74
2023/12/29 08:02:20;;;;;;;7.20;4.75;;;15.60;99.90;;;;;;4592610;19;20003;-74
2023/12/29 08:03:54;;;;;;;7.50;4.75;;;15.60;99.90;;;;;;4592644;19;19998;-74
2023/12/29 08:05:30;;;;;;;8.50;5.40;;;15.70;99.90;;;;;;4592749;19;20315;-74
2023/12/29 08:07:04;;;;;;;6.55;5.00;;;15.70;99.90;;;;;;4591247;19;20088;-74
2023/12/29 08:08:38;;;;;;;6.25;4.35;;;15.80;99.90;;;;;;4592085;19;20007;-74
2023/12/29 08:10:13;;;;;;;8.13;5.95;;;15.80;99.90;;;;;;4592563;19;20418;-74
2023/12/29 08:11:48;;;;;;;7.93;5.38;;;15.80;99.90;;;;;;4591658;19;20121;-74
2023/12/29 08:13:22;;;;;;;8.43;4.97;;;15.80;99.90;;;;;;4592257;19;20007;-74
2023/12/29 08:14:57;;;;;;;8.05;5.38;;;15.90;99.90;;;;;;4592735;19;20074;-74
2023/12/29 08:16:31;;;;;;;7.85;5.10;;;15.90;99.90;;;;;;4592294;19;20003;-74
2023/12/29 08:18:06;;;;;;;7.70;5.22;;;15.90;99.90;;;;;;4592607;19;20306;-74
2023/12/29 08:19:43;;;;;;;7.25;4.22;;;15.90;99.90;;;;;;4592338;19;20007;-74